Time;durP1;ratioP1;P1;durP2;ratioP2;P2;SDS_P1;SDS_P2;PMS_P1;PMS_P2;Temp;Humidity;BMP_temperature;BMP_pressure;BME280_temperature;BME280_humidity;BME280_pressure;Samples;Min_cycle;Max_cycle;Signal;HPM_P1;HPM_P2
2023/03/15 00:01:37;;;;;;;6.93;1.83;;;2.80;99.90;;;;;;5074480;28;20038;-86
2023/03/15 00:04:04;;;;;;;8.30;1.95;;;2.80;99.90;;;;;;5075647;28;20119;-87
2023/03/15 00:06:32;;;;;;;8.35;1.88;;;2.80;99.90;;;;;;5099661;28;20110;-88
2023/03/15 00:09:00;;;;;;;6.05;1.40;;;2.70;99.90;;;;;;5076898;28;20477;-88
2023/03/15 00:11:27;;;;;;;4.13;1.58;;;2.70;99.90;;;;;;5092529;28;20041;-88
2023/03/15 00:13:52;;;;;;;5.03;1.55;;;2.70;99.90;;;;;;5090507;28;20040;-88
2023/03/15 00:16:18;;;;;;;10.18;2.28;;;2.70;99.90;;;;;;5073264;28;20689;-88
2023/03/15 00:18:45;;;;;;;10.98;1.95;;;2.60;99.90;;;;;;5073301;28;20122;-88
2023/03/15 00:21:11;;;;;;;6.95;1.67;;;2.60;99.90;;;;;;5090031;28;20070;-89
2023/03/15 00:23:37;;;;;;;9.82;2.17;;;2.60;99.90;;;;;;5072961;28;20071;-88
2023/03/15 00:26:03;;;;;;;7.70;2.03;;;2.60;99.90;;;;;;5089851;28;20068;-88
2023/03/15 00:28:29;;;;;;;8.48;1.75;;;2.60;99.90;;;;;;5081734;28;20036;-88
2023/03/15 00:31:15;;;;;;;7.20;1.92;;;2.60;99.90;;;;;;5095018;28;20043;-88
2023/03/15 00:33:41;;;;;;;6.65;1.75;;;2.50;99.90;;;;;;5064382;28;20043;-88
2023/03/15 00:36:08;;;;;;;5.63;1.50;;;2.50;99.90;;;;;;5080457;28;20089;-88
2023/03/15 00:38:35;;;;;;;8.40;1.70;;;2.50;99.90;;;;;;5080002;28;20051;-88
2023/03/15 00:41:09;;;;;;;6.70;1.75;;;2.50;99.90;;;;;;5080306;28;20093;-88
2023/03/15 00:43:35;;;;;;;6.75;1.98;;;2.50;99.90;;;;;;5079312;28;20089;-88
2023/03/15 00:46:02;;;;;;;5.45;1.30;;;2.50;99.90;;;;;;5096814;28;20080;-88
2023/03/15 00:48:28;;;;;;;5.78;1.40;;;2.50;99.90;;;;;;5079875;28;20024;-88
2023/03/15 00:51:09;;;;;;;6.10;1.65;;;2.40;99.90;;;;;;5063352;28;20032;-88
2023/03/15 00:53:37;;;;;;;6.82;2.03;;;2.40;99.90;;;;;;5065230;28;20063;-88
2023/03/15 00:56:09;;;;;;;4.85;1.80;;;2.40;99.90;;;;;;5078994;28;20685;-88
2023/03/15 00:58:35;;;;;;;5.45;1.60;;;2.40;99.90;;;;;;5079691;28;20040;-88
2023/03/15 01:01:09;;;;;;;8.15;1.98;;;2.50;99.90;;;;;;5063821;28;20055;-88
2023/03/15 01:03:35;;;;;;;3.03;0.90;;;2.50;99.90;;;;;;5079279;28;20504;-88
2023/03/15 01:06:09;;;;;;;6.57;1.33;;;2.60;99.90;;;;;;5064584;28;20040;-88
2023/03/15 01:08:35;;;;;;;2.75;0.77;;;2.60;99.90;;;;;;5081070;28;20500;-88
2023/03/15 01:11:03;;;;;;;1.75;0.57;;;2.60;99.90;;;;;;5100476;28;20036;-88
2023/03/15 01:13:28;;;;;;;3.83;0.90;;;2.60;99.90;;;;;;5084361;28;20032;-88
2023/03/15 01:15:54;;;;;;;3.08;0.93;;;2.60;99.90;;;;;;5083225;28;20085;-88
2023/03/15 01:18:19;;;;;;;3.55;0.85;;;2.60;99.90;;;;;;5069144;28;20967;-88
2023/03/15 01:20:45;;;;;;;3.55;0.60;;;2.60;99.90;;;;;;5093069;28;20076;-89
2023/03/15 01:23:11;;;;;;;0.75;0.52;;;2.60;99.90;;;;;;5076562;28;20550;-88
2023/03/15 01:25:36;;;;;;;3.67;0.82;;;2.60;99.90;;;;;;5075341;28;20039;-87
2023/03/15 01:28:02;;;;;;;2.95;1.00;;;2.60;99.90;;;;;;5075670;28;20386;-88
2023/03/15 01:30:27;;;;;;;4.15;0.98;;;2.60;99.90;;;;;;5075874;28;20135;-88
2023/03/15 01:32:53;;;;;;;5.85;1.02;;;2.50;99.90;;;;;;5076691;28;20468;-88
2023/03/15 01:35:19;;;;;;;4.82;1.08;;;2.60;99.90;;;;;;5075798;28;20040;-88
2023/03/15 01:37:44;;;;;;;5.18;1.05;;;2.60;99.90;;;;;;5092829;28;20074;-88
2023/03/15 01:40:13;;;;;;;3.45;0.88;;;2.60;99.90;;;;;;5092841;28;20140;-88
2023/03/15 01:43:03;;;;;;;4.93;1.23;;;2.60;99.90;;;;;;5076372;28;20046;-87
2023/03/15 01:46:06;;;;;;;5.97;0.98;;;2.60;99.90;;;;;;5076123;28;20036;-88
2023/03/15 01:48:43;;;;;;;7.75;1.10;;;2.60;99.90;;;;;;5023726;28;20050;-88
2023/03/15 01:51:29;;;;;;;3.90;0.95;;;2.60;99.90;;;;;;5075764;28;20032;-88
2023/03/15 01:54:09;;;;;;;6.72;1.17;;;2.60;99.90;;;;;;5074443;28;20048;-87
2023/03/15 01:56:39;;;;;;;4.97;1.10;;;2.60;99.90;;;;;;5092845;28;20047;-88
2023/03/15 01:59:09;;;;;;;2.30;0.70;;;2.70;99.90;;;;;;5075176;28;20052;-88
2023/03/15 02:01:35;;;;;;;2.70;1.50;;;2.70;99.90;;;;;;5076154;28;20069;-88
2023/03/15 02:04:11;;;;;;;5.20;1.27;;;2.70;99.90;;;;;;5092461;28;20998;-88
2023/03/15 02:06:37;;;;;;;4.70;1.20;;;2.70;99.90;;;;;;5091019;28;20040;-88
2023/03/15 02:09:13;;;;;;;6.32;1.02;;;2.70;99.90;;;;;;5091744;28;20040;-88
2023/03/15 02:11:40;;;;;;;7.15;1.40;;;2.60;99.90;;;;;;5075132;28;20047;-90
2023/03/15 02:14:08;;;;;;;6.97;1.15;;;2.60;99.90;;;;;;5092282;28;20036;-88
2023/03/15 02:16:34;;;;;;;3.13;0.75;;;2.60;99.90;;;;;;5075088;28;20036;-89
2023/03/15 02:19:19;;;;;;;5.97;1.35;;;2.60;99.90;;;;;;5091646;28;20059;-89
2023/03/15 02:21:55;;;;;;;6.72;0.90;;;2.50;99.90;;;;;;5091590;28;20039;-88
2023/03/15 02:24:45;;;;;;;3.33;0.77;;;2.50;99.90;;;;;;5074307;28;20036;-88
2023/03/15 02:27:11;;;;;;;5.53;1.08;;;2.50;99.90;;;;;;5075050;28;20044;-89
2023/03/15 02:29:36;;;;;;;6.20;0.80;;;2.50;99.90;;;;;;5074289;28;20885;-89
2023/03/15 02:32:05;;;;;;;7.35;1.52;;;2.50;99.90;;;;;;5092133;28;20043;-89
2023/03/15 02:34:31;;;;;;;2.63;1.17;;;2.50;99.90;;;;;;5091775;28;20040;-89
2023/03/15 02:36:56;;;;;;;6.88;1.13;;;2.50;99.90;;;;;;5074507;28;20417;-89
2023/03/15 02:39:23;;;;;;;7.68;1.15;;;2.50;99.90;;;;;;5074784;28;20044;-88
2023/03/15 02:41:53;;;;;;;7.85;1.23;;;2.50;99.90;;;;;;5082598;28;20500;-88
2023/03/15 02:44:34;;;;;;;10.98;1.45;;;2.50;99.90;;;;;;5091360;28;20032;-88
2023/03/15 02:47:29;;;;;;;6.63;1.30;;;2.50;99.90;;;;;;5073915;28;20055;-88
2023/03/15 02:49:54;;;;;;;6.00;1.20;;;2.50;99.90;;;;;;5071036;28;20136;-87
2023/03/15 02:52:21;;;;;;;6.72;1.10;;;2.50;99.90;;;;;;5073308;28;20091;-88
2023/03/15 02:54:47;;;;;;;6.53;0.93;;;2.50;99.90;;;;;;5091230;28;20051;-89
2023/03/15 02:57:14;;;;;;;4.22;1.25;;;2.50;99.90;;;;;;5091255;28;20378;-88
2023/03/15 02:59:43;;;;;;;4.97;1.17;;;2.50;99.90;;;;;;5073480;28;20028;-88
2023/03/15 03:02:10;;;;;;;4.13;1.20;;;2.50;99.90;;;;;;5073699;28;20086;-88
2023/03/15 03:04:37;;;;;;;5.50;1.25;;;2.50;99.90;;;;;;5074386;28;20481;-88
2023/03/15 03:07:03;;;;;;;6.05;1.08;;;2.40;99.90;;;;;;5073444;28;20556;-88
2023/03/15 03:09:29;;;;;;;5.18;0.80;;;2.40;99.90;;;;;;5073955;28;20789;-88
2023/03/15 03:11:54;;;;;;;9.15;1.05;;;2.40;99.90;;;;;;5073993;28;20127;-88
2023/03/15 03:14:22;;;;;;;8.52;1.08;;;2.40;99.90;;;;;;5090902;28;20636;-88
2023/03/15 03:16:49;;;;;;;4.18;0.90;;;2.40;99.90;;;;;;5090110;28;20040;-88
2023/03/15 03:19:14;;;;;;;9.15;1.60;;;2.30;99.90;;;;;;5089572;28;20061;-88
2023/03/15 03:21:43;;;;;;;11.48;1.38;;;2.30;99.90;;;;;;5073399;28;20479;-88
2023/03/15 03:24:10;;;;;;;29.50;2.80;;;2.30;99.90;;;;;;5089830;28;20075;-87
2023/03/15 03:26:36;;;;;;;8.23;1.13;;;2.30;99.90;;;;;;5073085;28;20089;-88
2023/03/15 03:29:04;;;;;;;7.63;1.08;;;2.30;99.90;;;;;;5089513;28;20423;-88
2023/03/15 03:31:32;;;;;;;4.88;1.05;;;2.30;99.90;;;;;;5072477;28;20032;-88
2023/03/15 03:33:58;;;;;;;4.30;1.00;;;2.30;99.90;;;;;;5071847;28;20119;-88
2023/03/15 03:36:24;;;;;;;5.18;1.20;;;2.30;99.90;;;;;;5072305;28;20127;-88
2023/03/15 03:38:50;;;;;;;9.43;1.15;;;2.20;99.90;;;;;;5072943;28;20036;-87
2023/03/15 03:41:16;;;;;;;5.00;0.80;;;2.20;99.90;;;;;;5071945;28;20501;-88
2023/03/15 03:43:42;;;;;;;8.23;1.13;;;2.20;99.90;;;;;;5089930;28;20122;-88
2023/03/15 03:46:08;;;;;;;6.43;1.10;;;2.20;99.90;;;;;;5090136;28;20124;-88
2023/03/15 03:48:33;;;;;;;7.75;1.10;;;2.20;99.90;;;;;;5072700;28;20071;-88
2023/03/15 03:50:59;;;;;;;8.40;1.52;;;2.10;99.90;;;;;;5090548;28;20462;-88
2023/03/15 03:53:25;;;;;;;7.93;1.30;;;2.10;99.90;;;;;;5088751;28;20028;-87
2023/03/15 03:55:53;;;;;;;5.10;1.08;;;2.10;99.90;;;;;;5089354;28;20070;-87
2023/03/15 03:58:19;;;;;;;8.95;1.30;;;2.10;99.90;;;;;;5072055;28;20461;-88
2023/03/15 04:00:44;;;;;;;3.35;1.02;;;2.00;99.90;;;;;;5072270;28;20094;-88
2023/03/15 04:03:10;;;;;;;6.90;1.50;;;2.00;99.90;;;;;;5090451;28;20513;-88
2023/03/15 04:05:36;;;;;;;4.63;0.70;;;2.00;99.90;;;;;;5089107;28;20490;-88
2023/03/15 04:08:01;;;;;;;6.60;1.27;;;2.00;99.90;;;;;;5089344;28;20057;-87
2023/03/15 04:10:27;;;;;;;9.25;1.10;;;2.00;99.90;;;;;;5072743;28;20125;-88
2023/03/15 04:12:57;;;;;;;7.63;1.38;;;2.00;99.90;;;;;;5090012;28;20036;-88
2023/03/15 04:15:23;;;;;;;5.97;0.90;;;1.90;99.90;;;;;;5072677;28;20104;-88
2023/03/15 04:17:54;;;;;;;7.55;1.00;;;1.90;99.90;;;;;;5088243;28;20036;-87
2023/03/15 04:20:21;;;;;;;4.95;1.33;;;1.80;99.90;;;;;;5072351;28;20712;-88
2023/03/15 04:22:48;;;;;;;5.78;1.05;;;1.80;99.90;;;;;;5071890;28;20044;-86
2023/03/15 04:25:18;;;;;;;8.15;1.15;;;1.80;99.90;;;;;;5072921;28;20068;-86
2023/03/15 04:27:44;;;;;;;4.53;0.90;;;1.70;99.90;;;;;;5089721;28;20536;-86
2023/03/15 04:30:10;;;;;;;7.55;1.13;;;1.70;99.90;;;;;;5088889;28;20032;-87
2023/03/15 04:32:36;;;;;;;4.13;0.82;;;1.70;99.90;;;;;;5073317;28;20050;-88
2023/03/15 04:35:03;;;;;;;5.55;0.95;;;1.60;99.90;;;;;;5088854;28;20040;-87
2023/03/15 04:37:30;;;;;;;4.25;1.05;;;1.60;99.90;;;;;;5089553;28;20052;-86
2023/03/15 04:39:56;;;;;;;4.70;1.10;;;1.60;99.90;;;;;;5088818;28;20036;-87
2023/03/15 04:42:24;;;;;;;6.63;1.00;;;1.60;99.90;;;;;;5091410;28;20040;-87
2023/03/15 04:44:50;;;;;;;6.47;1.30;;;1.60;99.90;;;;;;5093673;28;20051;-87
2023/03/15 04:47:16;;;;;;;9.63;1.08;;;1.60;99.90;;;;;;5093269;28;20036;-88
2023/03/15 04:49:41;;;;;;;3.40;0.70;;;1.60;99.90;;;;;;5092977;28;20118;-87
2023/03/15 04:52:07;;;;;;;4.88;1.10;;;1.60;99.90;;;;;;5092090;28;20040;-88
2023/03/15 04:54:33;;;;;;;6.22;1.10;;;1.60;99.90;;;;;;5092419;28;20040;-87
2023/03/15 04:56:58;;;;;;;5.22;0.90;;;1.60;99.90;;;;;;5075364;28;20542;-88
2023/03/15 04:59:24;;;;;;;3.78;0.70;;;1.60;99.90;;;;;;5075670;28;20040;-87
2023/03/15 05:01:49;;;;;;;6.65;0.90;;;1.60;99.90;;;;;;5092818;28;20512;-87
2023/03/15 05:04:16;;;;;;;5.13;0.90;;;1.60;99.90;;;;;;5076256;28;20044;-87
2023/03/15 05:06:41;;;;;;;5.63;0.88;;;1.60;99.90;;;;;;5076728;28;20048;-87
2023/03/15 05:09:07;;;;;;;7.32;1.00;;;1.60;99.90;;;;;;5092751;28;20040;-87
2023/03/15 05:11:32;;;;;;;3.53;0.75;;;1.50;99.90;;;;;;5076570;28;20032;-87
2023/03/15 05:13:58;;;;;;;4.45;0.80;;;1.50;99.90;;;;;;5075797;28;20040;-87
2023/03/15 05:16:23;;;;;;;5.63;1.25;;;1.40;99.90;;;;;;5075060;28;20417;-87
2023/03/15 05:18:49;;;;;;;3.22;0.88;;;1.40;99.90;;;;;;5075938;28;20044;-87
2023/03/15 05:21:15;;;;;;;6.78;1.02;;;1.40;99.90;;;;;;5092222;28;20042;-87
2023/03/15 05:23:40;;;;;;;5.72;0.73;;;1.40;99.90;;;;;;5092671;28;20052;-88
2023/03/15 05:26:06;;;;;;;5.15;1.08;;;1.40;99.90;;;;;;5093588;28;20135;-87
2023/03/15 05:28:31;;;;;;;4.30;0.75;;;1.40;99.90;;;;;;5075495;28;20038;-87
2023/03/15 05:30:57;;;;;;;6.68;0.95;;;1.30;99.90;;;;;;5076399;28;20119;-88
2023/03/15 05:33:23;;;;;;;5.32;1.05;;;1.30;99.90;;;;;;5093279;28;20040;-87
2023/03/15 05:35:49;;;;;;;6.85;0.88;;;1.40;99.90;;;;;;5075583;28;20048;-87
2023/03/15 05:38:15;;;;;;;4.78;0.88;;;1.30;99.90;;;;;;5076016;28;20065;-87
2023/03/15 05:40:44;;;;;;;5.68;1.17;;;1.40;99.90;;;;;;5091684;28;20065;-88
2023/03/15 05:43:10;;;;;;;2.85;0.50;;;1.30;99.90;;;;;;5093021;28;20113;-89
2023/03/15 05:45:36;;;;;;;7.10;1.10;;;1.30;99.90;;;;;;5092670;28;20603;-87
2023/03/15 05:48:03;;;;;;;5.95;0.98;;;1.30;99.90;;;;;;5075090;28;20036;-87
2023/03/15 05:50:29;;;;;;;7.40;1.17;;;1.30;99.90;;;;;;5092161;28;20032;-88
2023/03/15 05:52:55;;;;;;;6.85;1.38;;;1.40;99.90;;;;;;5074598;28;20028;-87
2023/03/15 05:55:21;;;;;;;7.13;1.10;;;1.40;99.90;;;;;;5090982;28;20048;-88
2023/03/15 05:57:47;;;;;;;9.50;1.10;;;1.40;99.90;;;;;;5091908;28;20044;-87
2023/03/15 06:00:14;;;;;;;5.32;1.15;;;1.40;99.90;;;;;;5075738;28;20055;-87
2023/03/15 06:02:44;;;;;;;6.93;0.95;;;1.50;99.90;;;;;;5075590;28;20039;-87
2023/03/15 06:05:09;;;;;;;6.60;1.23;;;1.50;99.90;;;;;;5092022;28;20044;-87
2023/03/15 06:07:36;;;;;;;5.57;1.35;;;1.50;99.90;;;;;;5091902;28;20123;-87
2023/03/15 06:10:02;;;;;;;5.90;1.17;;;1.60;99.90;;;;;;5093109;28;20448;-88
2023/03/15 06:12:27;;;;;;;4.35;1.25;;;1.60;99.90;;;;;;5075721;28;20035;-87
2023/03/15 06:14:53;;;;;;;6.80;1.38;;;1.60;99.90;;;;;;5077023;28;20078;-88
2023/03/15 06:17:19;;;;;;;8.20;1.67;;;1.70;99.90;;;;;;5075831;28;20508;-87
2023/03/15 06:19:44;;;;;;;4.75;0.98;;;1.70;99.90;;;;;;5074305;28;20081;-87
2023/03/15 06:22:10;;;;;;;7.35;1.48;;;1.70;99.90;;;;;;5074705;28;20493;-88
2023/03/15 06:24:35;;;;;;;5.55;1.25;;;1.70;99.90;;;;;;5074152;28;20146;-87
2023/03/15 06:27:01;;;;;;;5.13;1.00;;;1.70;99.90;;;;;;5091282;28;20051;-87
2023/03/15 06:29:27;;;;;;;2.47;0.70;;;1.80;99.90;;;;;;5074733;28;20036;-87
2023/03/15 06:31:52;;;;;;;5.97;1.05;;;1.70;99.90;;;;;;5074996;28;20036;-88
2023/03/15 06:34:19;;;;;;;6.07;0.90;;;1.80;99.90;;;;;;5075021;28;20481;-87
2023/03/15 06:36:46;;;;;;;5.68;1.00;;;1.80;99.90;;;;;;5075009;28;20523;-88
2023/03/15 06:39:12;;;;;;;3.28;0.80;;;1.80;99.90;;;;;;5074758;28;20044;-89
2023/03/15 06:41:38;;;;;;;4.28;1.45;;;1.80;99.90;;;;;;5075490;28;20382;-88
2023/03/15 06:44:04;;;;;;;7.93;1.80;;;1.80;99.90;;;;;;5073644;28;20127;-88
2023/03/15 06:46:30;;;;;;;9.35;1.30;;;1.80;99.90;;;;;;5074000;28;20062;-87
2023/03/15 06:48:56;;;;;;;8.63;1.85;;;1.80;99.90;;;;;;5073436;28;20040;-88
2023/03/15 06:51:22;;;;;;;5.95;1.42;;;1.80;99.90;;;;;;5091263;28;20493;-88
2023/03/15 06:53:47;;;;;;;4.55;1.30;;;1.70;99.90;;;;;;5091022;28;20043;-87
2023/03/15 06:56:13;;;;;;;7.75;1.05;;;1.80;99.90;;;;;;5091641;28;20519;-88
2023/03/15 06:58:39;;;;;;;6.88;1.08;;;1.80;99.90;;;;;;5091636;28;20043;-88
2023/03/15 07:01:04;;;;;;;6.13;1.00;;;1.80;99.90;;;;;;5090675;28;20089;-88
2023/03/15 07:03:30;;;;;;;8.73;1.23;;;1.90;99.90;;;;;;5090769;28;20036;-88
2023/03/15 07:05:55;;;;;;;5.07;0.90;;;1.90;99.90;;;;;;5072066;28;20040;-88
2023/03/15 07:08:23;;;;;;;7.90;1.83;;;1.90;99.90;;;;;;5073036;28;20459;-87
2023/03/15 07:10:49;;;;;;;6.85;1.05;;;2.00;99.90;;;;;;5074022;28;20038;-88
2023/03/15 07:13:16;;;;;;;5.50;0.85;;;2.00;99.90;;;;;;5074008;28;20031;-88
2023/03/15 07:15:42;;;;;;;5.55;1.08;;;2.00;99.90;;;;;;5074539;28;20055;-88
2023/03/15 07:18:07;;;;;;;4.63;1.27;;;2.10;99.90;;;;;;5090632;28;20031;-88
2023/03/15 07:20:33;;;;;;;6.35;1.70;;;2.10;99.90;;;;;;5074653;28;20052;-88
2023/03/15 07:22:58;;;;;;;11.73;1.17;;;2.10;99.90;;;;;;5074653;28;20166;-87
2023/03/15 07:25:24;;;;;;;9.35;1.63;;;2.20;99.90;;;;;;5090856;28;20040;-87
2023/03/15 07:27:51;;;;;;;4.78;0.90;;;2.30;99.90;;;;;;5074421;28;20665;-87
2023/03/15 07:30:18;;;;;;;4.97;1.02;;;2.30;99.90;;;;;;5091389;28;20370;-88
2023/03/15 07:32:44;;;;;;;9.18;1.38;;;2.40;99.90;;;;;;5090713;28;20139;-88
2023/03/15 07:35:09;;;;;;;6.68;1.55;;;2.40;99.90;;;;;;5073908;28;20091;-87
2023/03/15 07:37:35;;;;;;;4.88;0.98;;;2.50;99.90;;;;;;5089946;28;20044;-89
2023/03/15 07:40:08;;;;;;;5.10;1.10;;;2.60;99.90;;;;;;5089734;28;20040;-87
2023/03/15 07:42:37;;;;;;;2.47;0.68;;;2.60;99.90;;;;;;5073294;28;20055;-87
2023/03/15 07:45:04;;;;;;;5.05;0.98;;;2.70;99.90;;;;;;5089761;28;20074;-88
2023/03/15 07:47:30;;;;;;;7.78;1.98;;;2.80;99.90;;;;;;5073943;28;20083;-88
2023/03/15 07:49:56;;;;;;;5.82;1.17;;;2.80;99.90;;;;;;5074023;28;20527;-88
2023/03/15 07:52:23;;;;;;;7.10;0.98;;;2.90;99.90;;;;;;5075124;28;20028;-89
2023/03/15 07:54:48;;;;;;;5.10;2.03;;;3.00;99.90;;;;;;5091113;28;20028;-89
2023/03/15 07:57:14;;;;;;;4.72;0.88;;;3.10;99.90;;;;;;5068113;28;20463;-88
2023/03/15 07:59:39;;;;;;;5.40;1.20;;;3.20;99.90;;;;;;5090240;28;20086;-89
2023/03/15 08:02:06;;;;;;;5.25;0.90;;;3.30;99.90;;;;;;5070958;28;20044;-89
2023/03/15 08:04:31;;;;;;;7.38;1.20;;;3.40;99.90;;;;;;5086808;28;20044;-89
2023/03/15 08:06:57;;;;;;;8.98;1.40;;;3.50;99.90;;;;;;5089932;28;20413;-88
2023/03/15 08:09:23;;;;;;;4.07;0.75;;;3.60;99.90;;;;;;5089884;28;20036;-89
2023/03/15 08:11:49;;;;;;;5.20;1.02;;;3.70;99.90;;;;;;5085647;28;20040;-89
2023/03/15 08:14:15;;;;;;;3.30;0.93;;;3.80;99.90;;;;;;5070484;28;20036;-89
2023/03/15 08:16:40;;;;;;;3.67;1.13;;;3.90;99.90;;;;;;5070723;28;20036;-89
2023/03/15 08:19:06;;;;;;;2.65;0.70;;;4.00;99.90;;;;;;5073939;28;20131;-89
2023/03/15 08:21:32;;;;;;;7.78;0.73;;;4.20;99.90;;;;;;5073626;28;20040;-89
2023/03/15 08:23:59;;;;;;;8.15;1.10;;;4.30;99.90;;;;;;5073757;28;20424;-90
2023/03/15 08:26:24;;;;;;;8.88;1.20;;;4.40;99.90;;;;;;5090727;28;20448;-90
2023/03/15 08:28:50;;;;;;;6.35;1.20;;;4.50;99.90;;;;;;5073081;28;20497;-90
2023/03/15 08:31:16;;;;;;;6.85;1.38;;;4.60;99.90;;;;;;5073102;28;20039;-90
2023/03/15 08:33:42;;;;;;;7.43;1.85;;;4.70;99.90;;;;;;5070157;28;20081;-89
2023/03/15 08:36:08;;;;;;;9.55;1.00;;;4.80;99.90;;;;;;5071617;28;20035;-89
2023/03/15 08:38:34;;;;;;;5.95;1.30;;;4.90;99.90;;;;;;5072069;28;20410;-88
2023/03/15 08:41:00;;;;;;;5.68;0.90;;;5.00;99.90;;;;;;5088897;28;20039;-88
2023/03/15 08:43:26;;;;;;;9.70;1.75;;;5.00;99.90;;;;;;5073508;28;20039;-89
2023/03/15 08:45:52;;;;;;;8.25;1.17;;;5.10;99.90;;;;;;5089634;28;20047;-89
2023/03/15 08:48:17;;;;;;;7.78;1.80;;;5.20;99.90;;;;;;5089027;28;20051;-89
2023/03/15 08:50:43;;;;;;;7.22;1.13;;;5.30;99.90;;;;;;5090229;28;20405;-88
2023/03/15 08:53:09;;;;;;;6.90;1.42;;;5.40;99.90;;;;;;5089186;28;20043;-89
2023/03/15 08:55:36;;;;;;;4.70;1.23;;;5.50;99.90;;;;;;5073130;28;20086;-89
2023/03/15 08:58:03;;;;;;;8.25;1.83;;;5.60;99.90;;;;;;5088920;28;20040;-89
2023/03/15 09:00:29;;;;;;;9.85;1.10;;;5.70;99.90;;;;;;5073260;28;20043;-88
2023/03/15 09:02:55;;;;;;;6.63;1.25;;;5.80;99.90;;;;;;5073032;28;20040;-89
2023/03/15 09:05:24;;;;;;;10.23;1.55;;;5.90;99.90;;;;;;5088610;28;20040;-90
2023/03/15 09:07:51;;;;;;;7.35;1.17;;;5.90;99.90;;;;;;5072124;28;20148;-89
2023/03/15 09:10:18;;;;;;;6.63;0.98;;;6.00;99.90;;;;;;5067924;28;20764;-89
2023/03/15 09:12:49;;;;;;;6.18;1.23;;;6.00;99.90;;;;;;5080010;28;20524;-89
2023/03/15 09:15:15;;;;;;;10.77;1.55;;;6.10;99.90;;;;;;5079664;28;20033;-89
2023/03/15 09:17:42;;;;;;;9.48;1.83;;;6.30;99.90;;;;;;5078862;28;20072;-89
2023/03/15 09:20:13;;;;;;;6.53;0.95;;;6.30;99.90;;;;;;5080244;28;20062;-89
2023/03/15 09:22:43;;;;;;;6.78;1.30;;;6.50;99.90;;;;;;5065439;28;20430;-88
2023/03/15 09:25:09;;;;;;;7.30;1.33;;;6.60;99.90;;;;;;5080814;28;20485;-89
2023/03/15 09:27:35;;;;;;;9.80;1.70;;;6.70;99.90;;;;;;5081657;28;20028;-89
2023/03/15 09:30:00;;;;;;;8.32;1.35;;;6.70;99.90;;;;;;5085433;28;20040;-89
2023/03/15 09:32:26;;;;;;;6.38;1.02;;;6.60;99.70;;;;;;5076165;28;20028;-90
2023/03/15 09:34:52;;;;;;;10.93;1.50;;;6.60;98.50;;;;;;5092129;28;20139;-89
2023/03/15 09:37:19;;;;;;;6.18;1.40;;;6.60;99.30;;;;;;5076006;28;20150;-89
2023/03/15 09:39:45;;;;;;;5.72;1.02;;;6.60;98.90;;;;;;5084752;28;20036;-89
2023/03/15 09:42:31;;;;;;;8.48;2.22;;;6.60;97.10;;;;;;5092700;28;20112;-90
2023/03/15 09:45:17;;;;;;;8.98;1.50;;;6.80;99.10;;;;;;5076426;28;20032;-89
2023/03/15 09:48:19;;;;;;;6.03;1.00;;;7.00;99.90;;;;;;5092514;28;20520;-89
2023/03/15 09:50:52;;;;;;;5.60;0.98;;;7.20;94.90;;;;;;4995777;28;20046;-90
2023/03/15 09:53:26;;;;;;;7.38;1.20;;;7.30;96.40;;;;;;4995196;28;20381;-90
2023/03/15 09:55:52;;;;;;;4.90;1.20;;;7.50;95.20;;;;;;4979055;28;20147;-90
2023/03/15 09:58:22;;;;;;;10.05;1.35;;;7.50;96.00;;;;;;4978899;28;20875;-90
2023/03/15 10:01:05;;;;;;;3.80;1.10;;;7.70;96.60;;;;;;4978977;28;20141;-90
2023/03/15 10:03:48;;;;;;;8.82;1.98;;;7.80;95.10;;;;;;4978845;28;20037;-90
2023/03/15 10:06:13;;;;;;;;;;;7.80;94.10;;;;;;4979428;28;20112;-90
2023/03/15 10:08:39;;;;;;;5.70;1.42;;;7.90;92.10;;;;;;4978479;28;20542;-91
2023/03/15 10:11:20;;;;;;;9.93;1.60;;;8.00;94.80;;;;;;4978286;28;20038;-90
2023/03/15 10:13:58;;;;;;;5.28;1.33;;;8.20;94.70;;;;;;4995449;28;20049;-90
2023/03/15 10:16:38;;;;;;;7.50;0.98;;;8.30;93.50;;;;;;4993953;28;20042;-91
2023/03/15 10:19:38;;;;;;;6.40;1.17;;;8.40;93.00;;;;;;4993107;28;20045;-90
2023/03/15 10:22:13;;;;;;;6.22;0.85;;;8.50;92.10;;;;;;4995125;28;20046;-90
2023/03/15 10:24:55;;;;;;;5.55;1.17;;;8.70;90.90;;;;;;4995358;28;20042;-90
2023/03/15 10:27:38;;;;;;;5.97;0.93;;;8.80;89.30;;;;;;5049572;28;20048;-90
2023/03/15 10:30:16;;;;;;;6.50;1.10;;;8.60;82.70;;;;;;5092750;28;20211;-90
2023/03/15 10:32:44;;;;;;;8.60;1.52;;;8.50;81.70;;;;;;5092257;28;20522;-91
2023/03/15 10:35:15;;;;;;;6.82;1.08;;;8.50;83.90;;;;;;5075672;28;20035;-90
2023/03/15 10:37:41;;;;;;;6.28;0.98;;;8.60;84.80;;;;;;5075251;28;20063;-90
2023/03/15 10:40:14;;;;;;;6.85;1.17;;;8.70;84.60;;;;;;5091971;28;20048;-90
2023/03/15 10:42:43;;;;;;;7.15;1.25;;;8.70;84.10;;;;;;5075932;28;20103;-90
2023/03/15 10:45:23;;;;;;;6.47;1.10;;;8.90;84.60;;;;;;5074585;28;20444;-90
2023/03/15 10:47:50;;;;;;;6.28;0.90;;;9.00;82.80;;;;;;5075322;28;20040;-90
2023/03/15 10:50:37;;;;;;;6.85;1.15;;;9.20;83.90;;;;;;5074584;28;20515;-90
2023/03/15 10:53:19;;;;;;;4.35;1.15;;;9.10;78.50;;;;;;5058347;28;20151;-91
2023/03/15 10:55:45;;;;;;;5.47;1.00;;;9.00;78.50;;;;;;5065673;28;20102;-91
2023/03/15 10:58:19;;;;;;;3.95;0.90;;;9.10;80.30;;;;;;5068111;28;20561;-92
2023/03/15 11:00:51;;;;;;;7.35;1.00;;;9.20;80.00;;;;;;5109421;28;20047;-92
2023/03/15 11:03:20;;;;;;;6.27;1.00;;;9.30;77.90;;;;;;5092157;28;20404;-92
2023/03/15 11:05:49;;;;;;;7.78;1.02;;;9.30;76.40;;;;;;5090969;28;20298;-92
2023/03/15 11:08:17;;;;;;;5.50;1.02;;;9.20;74.70;;;;;;5074509;28;20038;-91
2023/03/15 11:10:45;;;;;;;7.32;1.27;;;9.20;74.10;;;;;;5091346;28;20042;-91
2023/03/15 11:13:10;;;;;;;5.65;0.77;;;9.30;74.70;;;;;;5074733;28;20040;-90
2023/03/15 11:15:38;;;;;;;6.22;1.10;;;9.60;76.80;;;;;;5074277;28;20093;-91
2023/03/15 11:18:04;;;;;;;5.80;0.95;;;9.90;77.00;;;;;;5074322;28;20097;-88
2023/03/15 11:20:38;;;;;;;7.25;1.20;;;10.10;77.00;;;;;;5074730;28;20036;-87
2023/03/15 11:23:33;;;;;;;5.93;0.98;;;10.40;76.60;;;;;;5089951;28;20044;-87
2023/03/15 11:26:00;;;;;;;9.05;1.65;;;10.60;75.10;;;;;;5071100;28;20506;-87
2023/03/15 11:28:28;;;;;;;9.50;1.83;;;10.70;75.70;;;;;;5090048;28;20616;-88
2023/03/15 11:30:58;;;;;;;5.90;1.30;;;11.00;75.20;;;;;;5074288;28;20040;-87
2023/03/15 11:33:42;;;;;;;4.57;1.38;;;11.10;74.60;;;;;;5090751;28;20024;-88
2023/03/15 11:36:16;;;;;;;6.28;1.23;;;11.20;71.40;;;;;;5089990;28;20040;-87
2023/03/15 11:38:43;;;;;;;5.97;1.13;;;10.90;68.20;;;;;;5090376;28;20079;-87
2023/03/15 11:41:27;;;;;;;5.13;0.98;;;10.80;69.90;;;;;;5090376;28;20032;-87
2023/03/15 11:44:01;;;;;;;7.15;1.30;;;10.50;66.20;;;;;;5088398;28;20390;-88
2023/03/15 11:46:39;;;;;;;4.20;0.68;;;10.30;67.30;;;;;;5069732;28;20040;-87
2023/03/15 11:49:22;;;;;;;3.13;0.70;;;10.10;67.80;;;;;;5089523;28;20032;-87
2023/03/15 11:51:48;;;;;;;5.85;1.30;;;10.20;68.60;;;;;;5072126;28;20404;-86
2023/03/15 11:54:17;;;;;;;7.07;1.27;;;10.30;68.70;;;;;;5086702;28;20111;-86
2023/03/15 11:56:42;;;;;;;6.75;1.10;;;10.10;67.60;;;;;;5089492;28;20178;-86
2023/03/15 11:59:22;;;;;;;4.70;0.90;;;10.30;68.50;;;;;;5086011;28;20602;-86
2023/03/15 12:01:50;;;;;;;5.40;1.17;;;10.10;67.20;;;;;;5072594;28;20040;-87
2023/03/15 12:04:31;;;;;;;7.93;1.08;;;10.10;67.00;;;;;;5089574;28;20040;-87
2023/03/15 12:06:59;;;;;;;5.55;1.13;;;10.20;66.80;;;;;;5079359;28;20170;-88
2023/03/15 12:09:36;;;;;;;4.22;0.80;;;10.20;65.50;;;;;;5071634;28;20099;-88
2023/03/15 12:12:23;;;;;;;5.32;1.13;;;10.20;65.20;;;;;;5088871;28;20123;-88
2023/03/15 12:15:13;;;;;;;5.82;1.10;;;10.30;63.80;;;;;;5082009;28;20035;-89
2023/03/15 12:17:52;;;;;;;3.00;0.93;;;10.40;65.00;;;;;;5090447;28;20040;-88
2023/03/15 12:20:41;;;;;;;4.10;0.88;;;10.40;63.70;;;;;;5073725;28;20038;-88
2023/03/15 12:23:16;;;;;;;5.28;1.15;;;10.30;62.20;;;;;;5073640;28;20702;-88
2023/03/15 12:25:50;;;;;;;5.75;1.10;;;10.40;62.80;;;;;;5089190;28;20047;-88
2023/03/15 12:28:40;;;;;;;6.35;1.40;;;10.50;64.10;;;;;;5067955;28;20036;-88
2023/03/15 12:31:12;;;;;;;7.20;1.15;;;10.50;64.20;;;;;;5077442;28;20044;-89
2023/03/15 12:33:58;;;;;;;4.45;1.27;;;10.60;64.00;;;;;;5072620;28;20028;-88
2023/03/15 12:36:40;;;;;;;9.15;1.10;;;10.40;63.30;;;;;;5105165;28;20078;-88
2023/03/15 12:39:08;;;;;;;4.60;1.35;;;10.60;63.80;;;;;;5105743;28;20390;-88
2023/03/15 12:41:36;;;;;;;7.13;1.13;;;10.60;63.10;;;;;;5089940;28;20040;-88
2023/03/15 12:44:20;;;;;;;5.03;1.20;;;10.70;63.40;;;;;;5089069;28;20036;-88
2023/03/15 12:46:46;;;;;;;4.13;0.88;;;10.70;60.60;;;;;;5087306;28;20044;-87
2023/03/15 12:49:13;;;;;;;4.55;0.77;;;10.80;61.30;;;;;;5081872;28;20036;-87
2023/03/15 12:51:52;;;;;;;6.90;1.20;;;10.90;60.70;;;;;;5098575;28;20548;-88
2023/03/15 12:54:19;;;;;;;4.93;1.30;;;10.90;59.90;;;;;;5097338;28;20063;-87
2023/03/15 12:57:10;;;;;;;5.22;1.20;;;10.90;60.30;;;;;;5060990;28;20040;-88
2023/03/15 12:59:40;;;;;;;5.20;0.85;;;10.90;59.30;;;;;;5029475;28;20107;-87
2023/03/15 13:02:27;;;;;;;3.30;0.90;;;11.00;59.80;;;;;;5014838;28;20053;-88
2023/03/15 13:05:12;;;;;;;4.55;0.90;;;11.10;59.00;;;;;;5017166;28;20517;-88
2023/03/15 13:07:55;;;;;;;7.10;1.73;;;11.00;58.90;;;;;;5014687;28;20043;-88